createdAt,value
2023-12-23T00:01:16.929Z,98529.91
2023-12-23T00:03:50.152Z,98540.89
2023-12-23T00:06:19.418Z,98532.38
2023-12-23T00:08:48.329Z,98531.93
2023-12-23T00:11:17.138Z,98533.13
2023-12-23T00:13:45.913Z,98545.17
2023-12-23T00:16:14.677Z,98551.89
2023-12-23T00:18:43.574Z,98559.73
2023-12-23T00:21:12.451Z,98572.63
2023-12-23T00:23:41.312Z,98577.62
2023-12-23T00:26:10.331Z,98585.64
2023-12-23T00:28:39.699Z,98596.04
2023-12-23T00:31:08.476Z,98596.05
2023-12-23T00:33:37.563Z,98597.05
2023-12-23T00:36:07.423Z,98590.75
2023-12-23T00:38:36.668Z,98591.59
2023-12-23T00:41:05.745Z,98594.95
2023-12-23T00:43:34.529Z,98590.89
2023-12-23T00:46:03.626Z,98580.80
2023-12-23T00:48:32.503Z,98576.11
2023-12-23T00:51:01.836Z,98588.69
2023-12-23T00:53:30.715Z,98586.02
2023-12-23T00:55:59.484Z,98585.48
2023-12-23T00:58:36.448Z,98582.73
2023-12-23T01:01:09.357Z,98577.34
2023-12-23T01:03:38.569Z,98566.26
2023-12-23T01:06:07.592Z,98570.83
2023-12-23T01:08:36.552Z,98572.40
2023-12-23T01:11:05.816Z,98574.71
2023-12-23T01:13:34.758Z,98580.15
2023-12-23T01:16:03.760Z,98576.90
2023-12-23T01:18:32.507Z,98573.54
2023-12-23T01:21:01.258Z,98575.48
2023-12-23T01:23:30.093Z,98566.72
2023-12-23T01:25:58.954Z,98560.17
2023-12-23T01:28:27.659Z,98558.25
2023-12-23T01:30:57.026Z,98549.77
2023-12-23T01:33:25.855Z,98544.79
2023-12-23T01:35:54.824Z,98538.30
2023-12-23T01:38:23.821Z,98534.11
2023-12-23T01:40:52.842Z,98525.94
2023-12-23T01:43:21.948Z,98512.77
2023-12-23T01:45:53.287Z,98510.02
2023-12-23T01:48:24.194Z,98515.67
2023-12-23T01:50:55.587Z,98516.77
2023-12-23T01:53:26.007Z,98504.16
2023-12-23T01:55:55.896Z,98503.04
2023-12-23T01:58:24.866Z,98489.27
2023-12-23T02:00:53.923Z,98491.09
2023-12-23T02:03:22.722Z,98489.95
2023-12-23T02:05:51.644Z,98481.34
2023-12-23T02:08:20.984Z,98483.63
2023-12-23T02:11:01.148Z,98495.19
2023-12-23T02:13:38.614Z,98512.86
2023-12-23T02:16:08.264Z,98537.13
2023-12-23T02:18:37.929Z,98545.59
2023-12-23T02:21:07.017Z,98549.58
2023-12-23T02:23:36.050Z,98553.59
2023-12-23T02:26:09.979Z,98560.07
2023-12-23T02:28:41.873Z,98556.17
2023-12-23T02:31:11.688Z,98544.08
2023-12-23T02:33:40.525Z,98553.70
2023-12-23T02:36:10.199Z,98545.27
2023-12-23T02:38:38.961Z,98530.02
2023-12-23T02:41:08.136Z,98525.02
2023-12-23T02:43:36.993Z,98517.05
2023-12-23T02:46:06.453Z,98506.70
2023-12-23T02:48:35.531Z,98506.68
2023-12-23T02:51:04.646Z,98504.73
2023-12-23T02:53:33.513Z,98508.56
2023-12-23T02:56:02.505Z,98511.16
2023-12-23T02:58:33.198Z,98507.55
2023-12-23T03:01:08.567Z,98503.29
2023-12-23T03:03:38.763Z,98502.23
2023-12-23T03:06:07.962Z,98498.15
2023-12-23T03:08:37.877Z,98489.08
2023-12-23T03:11:06.904Z,98502.26
2023-12-23T03:13:37.596Z,98509.94
2023-12-23T03:16:18.252Z,98507.06
2023-12-23T03:21:58.931Z,98496.75
2023-12-23T03:24:27.857Z,98491.14
2023-12-23T03:26:58.862Z,98484.27
2023-12-23T03:29:27.477Z,98478.67
2023-12-23T03:31:56.374Z,98479.97
2023-12-23T03:34:25.134Z,98482.85
2023-12-23T03:36:53.908Z,98475.91
2023-12-23T03:39:22.771Z,98477.70
2023-12-23T03:41:51.685Z,98490.80
2023-12-23T03:44:22.180Z,98493.85
2023-12-23T03:46:51.052Z,98480.31
2023-12-23T03:49:19.782Z,98473.31
2023-12-23T03:51:48.517Z,98474.86
2023-12-23T03:54:28.558Z,98477.22
2023-12-23T03:56:59.918Z,98474.67
2023-12-23T03:59:29.105Z,98477.73
2023-12-23T04:01:58.295Z,98477.44
2023-12-23T04:04:27.612Z,98479.42
2023-12-23T04:06:56.478Z,98479.55
2023-12-23T04:09:29.432Z,98484.38
2023-12-23T04:11:59.159Z,98484.36
2023-12-23T04:14:28.682Z,98482.34
2023-12-23T04:17:00.317Z,98479.91
2023-12-23T04:19:29.331Z,98479.13
2023-12-23T04:21:58.545Z,98477.69
2023-12-23T04:24:30.495Z,98478.84
2023-12-23T04:26:59.354Z,98473.94
2023-12-23T04:29:31.166Z,98474.21
2023-12-23T04:32:00.080Z,98490.23
2023-12-23T04:34:29.551Z,98500.83
2023-12-23T04:36:58.463Z,98501.72
2023-12-23T04:39:27.380Z,98496.09
2023-12-23T04:41:56.243Z,98492.95
2023-12-23T04:44:25.558Z,98492.73
2023-12-23T04:46:54.368Z,98495.76
2023-12-23T04:49:23.145Z,98491.10
2023-12-23T04:51:54.421Z,98476.89
2023-12-23T04:54:23.654Z,98484.14
2023-12-23T04:56:52.507Z,98493.11
2023-12-23T04:59:21.519Z,98503.52
2023-12-23T05:01:52.213Z,98505.83
2023-12-23T05:04:20.957Z,98501.02
2023-12-23T05:06:50.013Z,98495.65
2023-12-23T05:09:18.771Z,98495.59
2023-12-23T05:11:47.448Z,98500.73
2023-12-23T05:14:16.741Z,98510.23
2023-12-23T05:16:45.679Z,98510.88
2023-12-23T05:19:14.684Z,98512.56
2023-12-23T05:21:45.371Z,98514.63
2023-12-23T05:24:14.168Z,98515.30
2023-12-23T05:26:43.102Z,98510.09
2023-12-23T05:29:11.827Z,98517.98
2023-12-23T05:31:40.832Z,98527.72
2023-12-23T05:34:11.385Z,98538.11
2023-12-23T05:36:40.228Z,98549.56
2023-12-23T05:39:09.588Z,98554.41
2023-12-23T05:41:38.505Z,98572.02
2023-12-23T05:44:09.199Z,98582.78
2023-12-23T05:46:38.117Z,98588.53
2023-12-23T05:49:07.043Z,98599.51
2023-12-23T05:51:36.052Z,98593.46
2023-12-23T05:54:05.328Z,98590.86
2023-12-23T05:56:34.201Z,98588.44
2023-12-23T05:59:03.400Z,98597.18
2023-12-23T06:01:32.488Z,98605.04
2023-12-23T06:04:01.478Z,98597.59
2023-12-23T06:06:30.409Z,98593.48
2023-12-23T06:08:59.318Z,98585.46
2023-12-23T06:11:28.192Z,98580.92
2023-12-23T06:17:12.888Z,98581.17
2023-12-23T06:19:42.035Z,98576.71
2023-12-23T06:22:11.145Z,98575.42
2023-12-23T06:24:40.080Z,98567.01
2023-12-23T06:27:08.934Z,98567.39
2023-12-23T06:29:37.655Z,98565.09
2023-12-23T06:32:07.056Z,98565.64
2023-12-23T06:34:36.365Z,98564.73
2023-12-23T06:37:05.165Z,98570.29
2023-12-23T06:39:34.339Z,98572.61
2023-12-23T06:42:03.350Z,98578.50
2023-12-23T06:44:32.312Z,98583.76
2023-12-23T06:47:01.351Z,98583.94
2023-12-23T06:49:30.553Z,98596.77
2023-12-23T06:52:02.296Z,98601.23
2023-12-23T06:54:31.130Z,98618.44
2023-12-23T06:56:59.900Z,98627.98
2023-12-23T06:59:28.744Z,98645.02
2023-12-23T07:01:57.805Z,98664.79
2023-12-23T07:04:26.756Z,98683.26
2023-12-23T07:06:55.517Z,98696.79
2023-12-23T07:09:24.603Z,98699.83
2023-12-23T07:11:53.657Z,98708.07
2023-12-23T07:14:22.917Z,98713.54
2023-12-23T07:16:52.632Z,98713.02
2023-12-23T07:19:22.442Z,98719.75
2023-12-23T07:21:54.794Z,98728.05
2023-12-23T07:24:24.131Z,98731.77
2023-12-23T07:26:53.235Z,98734.98
2023-12-23T07:29:23.240Z,98739.80
2023-12-23T07:31:52.714Z,98733.71
2023-12-23T07:34:21.981Z,98743.02
2023-12-23T07:36:50.874Z,98748.98
2023-12-23T07:39:20.781Z,98749.26
2023-12-23T07:41:49.496Z,98749.80
2023-12-23T07:44:18.545Z,98762.60
2023-12-23T07:46:47.679Z,98768.31
2023-12-23T07:49:16.643Z,98770.04
2023-12-23T07:51:47.396Z,98761.35
2023-12-23T07:54:16.438Z,98763.95
2023-12-23T07:56:45.442Z,98773.96
2023-12-23T07:59:32.907Z,98779.95
2023-12-23T08:02:02.033Z,98781.04
2023-12-23T08:04:32.706Z,98778.98
2023-12-23T08:07:01.793Z,98770.88
2023-12-23T08:09:30.526Z,98764.25
2023-12-23T08:11:59.495Z,98777.27
2023-12-23T08:14:28.572Z,98782.13
2023-12-23T08:16:57.447Z,98777.45
2023-12-23T08:19:26.496Z,98764.27
2023-12-23T08:21:55.295Z,98752.11
2023-12-23T08:24:24.215Z,98753.77
2023-12-23T08:26:53.068Z,98758.89
2023-12-23T08:29:22.895Z,98763.20
2023-12-23T08:31:51.760Z,98766.26
2023-12-23T08:34:22.530Z,98763.45
2023-12-23T08:36:51.699Z,98768.45
2023-12-23T08:39:20.953Z,98769.64
2023-12-23T08:41:49.877Z,98770.30
2023-12-23T08:44:22.620Z,98769.69
2023-12-23T08:46:52.323Z,98769.08
2023-12-23T08:49:21.443Z,98764.59
2023-12-23T08:51:50.418Z,98760.29
2023-12-23T08:54:19.227Z,98762.29
2023-12-23T08:56:48.162Z,98768.30
2023-12-23T08:59:17.789Z,98771.65
2023-12-23T09:01:46.675Z,98770.00
2023-12-23T09:04:15.670Z,98773.23
2023-12-23T09:06:44.656Z,98781.21
2023-12-23T09:09:13.709Z,98781.88
2023-12-23T09:11:44.879Z,98778.41
2023-12-23T09:14:13.738Z,98780.94
2023-12-23T09:16:42.828Z,98776.55
2023-12-23T09:19:11.818Z,98783.54
2023-12-23T09:21:40.708Z,98798.83
2023-12-23T09:24:09.645Z,98799.73
2023-12-23T09:26:38.590Z,98813.02
2023-12-23T09:29:07.648Z,98821.73
2023-12-23T09:31:36.681Z,98821.20
2023-12-23T09:34:06.169Z,98816.73
2023-12-23T09:36:35.161Z,98811.22
2023-12-23T09:39:03.991Z,98824.42
2023-12-23T09:41:33.456Z,98846.58
2023-12-23T09:44:02.682Z,98860.00
2023-12-23T09:46:33.055Z,98873.33
2023-12-23T09:49:04.924Z,98859.84
2023-12-23T09:53:46.626Z,98877.66
2023-12-23T09:56:16.728Z,98873.95
2023-12-23T09:58:45.821Z,98876.38
2023-12-23T10:01:14.809Z,98873.52
2023-12-23T10:03:43.716Z,98876.86
2023-12-23T10:06:16.453Z,98869.41
2023-12-23T10:08:47.418Z,98868.23
2023-12-23T10:11:16.200Z,98852.54
2023-12-23T10:13:45.057Z,98850.54
2023-12-23T10:16:17.072Z,98833.85
2023-12-23T10:18:47.781Z,98837.98
2023-12-23T10:21:16.749Z,98838.02
2023-12-23T10:23:47.559Z,98829.27
2023-12-23T10:26:16.961Z,98830.04
2023-12-23T10:28:55.282Z,98823.74
2023-12-23T10:31:27.933Z,98820.09
2023-12-23T10:34:00.953Z,98824.49
2023-12-23T10:36:29.490Z,98839.85
2023-12-23T10:39:07.359Z,98843.69
2023-12-23T10:41:57.123Z,98846.61
2023-12-23T10:44:31.307Z,98849.44
2023-12-23T10:47:08.623Z,98847.06
2023-12-23T10:49:37.522Z,98845.75
2023-12-23T10:52:07.932Z,98844.15
2023-12-23T10:54:38.289Z,98853.10
2023-12-23T10:57:08.180Z,98853.38
2023-12-23T10:59:37.397Z,98847.73
2023-12-23T11:02:15.027Z,98844.73
2023-12-23T11:04:56.901Z,98843.56
2023-12-23T11:07:39.580Z,98841.98
2023-12-23T11:10:09.653Z,98836.95
2023-12-23T11:12:39.462Z,98836.73
2023-12-23T11:15:08.929Z,98844.96
2023-12-23T11:17:44.503Z,98864.14
2023-12-23T11:20:49.198Z,98864.70
2023-12-23T11:23:36.684Z,98871.10
2023-12-23T11:26:06.457Z,98871.33
2023-12-23T11:28:39.047Z,98863.87
2023-12-23T11:31:10.324Z,98858.22
2023-12-23T11:33:40.815Z,98856.66
2023-12-23T11:36:10.071Z,98863.18
2023-12-23T11:38:50.077Z,98873.16
2023-12-23T11:41:22.611Z,98878.89
2023-12-23T11:43:52.113Z,98873.73
2023-12-23T11:46:25.606Z,98869.08
2023-12-23T11:48:59.026Z,98869.14
2023-12-23T11:51:28.272Z,98872.98
2023-12-23T11:54:00.061Z,98878.62
2023-12-23T11:56:29.660Z,98877.95
2023-12-23T11:59:02.327Z,98872.28
2023-12-23T12:01:36.773Z,98870.54
2023-12-23T12:04:07.039Z,98874.46
2023-12-23T12:06:36.210Z,98875.33
2023-12-23T12:09:07.891Z,98877.05
2023-12-23T12:11:56.757Z,98879.02
2023-12-23T12:14:27.619Z,98882.03
2023-12-23T12:16:56.543Z,98875.33
2023-12-23T12:19:25.926Z,98881.36
2023-12-23T12:21:54.721Z,98883.98
2023-12-23T12:24:23.541Z,98884.48
2023-12-23T12:26:54.554Z,98887.89
2023-12-23T12:29:24.459Z,98884.05
2023-12-23T12:31:54.354Z,98884.38
2023-12-23T12:34:23.722Z,98892.77
2023-12-23T12:36:53.981Z,98899.41
2023-12-23T12:39:23.114Z,98897.74
2023-12-23T12:41:53.128Z,98896.35
2023-12-23T12:44:22.984Z,98895.63
2023-12-23T12:46:57.528Z,98890.88
2023-12-23T12:49:26.240Z,98891.13
2023-12-23T12:51:55.228Z,98897.08
2023-12-23T12:54:26.688Z,98902.13
2023-12-23T12:56:56.350Z,98900.00
2023-12-23T12:59:25.163Z,98901.50
2023-12-23T13:01:55.313Z,98903.94
2023-12-23T13:04:24.707Z,98897.56
2023-12-23T13:06:53.929Z,98902.98
2023-12-23T13:09:23.192Z,98906.45
2023-12-23T13:11:52.917Z,98901.90
2023-12-23T13:14:22.059Z,98907.35
2023-12-23T13:16:51.070Z,98918.55
2023-12-23T13:19:20.746Z,98924.27
2023-12-23T13:21:51.435Z,98936.20
2023-12-23T13:24:20.747Z,98939.93
2023-12-23T13:26:52.314Z,98950.76
2023-12-23T13:29:22.885Z,98955.80
2023-12-23T13:31:52.020Z,98959.16
2023-12-23T13:37:52.223Z,98958.97
2023-12-23T13:40:21.796Z,98963.09
2023-12-23T13:42:51.426Z,98962.77
2023-12-23T13:45:20.936Z,98963.24
2023-12-23T13:47:53.635Z,98970.30
2023-12-23T13:50:22.937Z,98974.13
2023-12-23T13:52:52.470Z,98977.16
2023-12-23T13:55:21.789Z,98976.42
2023-12-23T13:57:50.674Z,98986.85
2023-12-23T14:00:19.780Z,98986.87
2023-12-23T14:02:49.247Z,98982.58
2023-12-23T14:05:18.721Z,98987.23
2023-12-23T14:07:47.730Z,98988.02
2023-12-23T14:10:16.815Z,98991.97
2023-12-23T14:12:45.759Z,98994.20
2023-12-23T14:15:14.884Z,99004.89
2023-12-23T14:17:43.865Z,99008.96
2023-12-23T14:20:13.394Z,99012.23
2023-12-23T14:22:42.157Z,99015.72
2023-12-23T14:25:10.992Z,99019.71
2023-12-23T14:27:39.787Z,99028.98
2023-12-23T14:30:09.189Z,99028.67
2023-12-23T14:32:38.216Z,99032.45
2023-12-23T14:35:08.081Z,99036.27
2023-12-23T14:37:44.862Z,99043.08
2023-12-23T14:40:17.843Z,99047.62
2023-12-23T14:42:47.662Z,99051.94
2023-12-23T14:45:18.643Z,99054.50
2023-12-23T14:47:47.788Z,99054.71
2023-12-23T14:50:20.417Z,99057.83
2023-12-23T14:52:49.541Z,99060.10
2023-12-23T14:55:18.948Z,99071.48
2023-12-23T14:57:47.938Z,99080.56
2023-12-23T15:00:17.680Z,99083.76
2023-12-23T15:02:46.645Z,99085.52
2023-12-23T15:05:16.378Z,99084.26
2023-12-23T15:07:45.434Z,99086.73
2023-12-23T15:10:14.915Z,99091.95
2023-12-23T15:12:43.697Z,99090.91
2023-12-23T15:15:12.490Z,99100.06
2023-12-23T15:17:42.046Z,99093.65
2023-12-23T15:20:11.470Z,99090.31
2023-12-23T15:22:40.467Z,99089.81
2023-12-23T15:25:10.051Z,99095.51
2023-12-23T15:27:38.900Z,99095.55
2023-12-23T15:30:09.093Z,99099.21
2023-12-23T15:32:38.675Z,99098.79
2023-12-23T15:35:08.180Z,99106.77
2023-12-23T15:37:37.087Z,99113.52
2023-12-23T15:40:07.454Z,99108.74
2023-12-23T15:42:36.216Z,99111.26
2023-12-23T15:45:05.668Z,99110.59
2023-12-23T15:47:35.101Z,99111.37
2023-12-23T15:50:04.808Z,99110.05
2023-12-23T15:52:34.137Z,99112.57
2023-12-23T15:55:03.805Z,99122.09
2023-12-23T15:57:32.796Z,99125.98
2023-12-23T16:00:02.124Z,99130.26
2023-12-23T16:02:40.982Z,99128.61
2023-12-23T16:05:11.050Z,99126.07
2023-12-23T16:07:39.867Z,99125.98
2023-12-23T16:10:09.396Z,99126.55
2023-12-23T16:12:38.687Z,99129.64
2023-12-23T16:15:08.741Z,99128.65
2023-12-23T16:17:37.939Z,99134.48
2023-12-23T16:20:08.839Z,99141.70
2023-12-23T16:22:37.830Z,99152.46
2023-12-23T16:25:07.274Z,99159.40
2023-12-23T16:27:36.298Z,99166.54
2023-12-23T16:30:06.775Z,99168.13
2023-12-23T16:32:35.948Z,99168.32
2023-12-23T16:35:06.917Z,99171.29
2023-12-23T16:37:36.122Z,99167.91
2023-12-23T16:40:06.075Z,99170.70
2023-12-23T16:42:35.712Z,99175.20
2023-12-23T16:45:06.512Z,99183.95
2023-12-23T16:47:35.331Z,99188.91
2023-12-23T16:50:05.555Z,99194.74
2023-12-23T16:52:35.307Z,99188.17
2023-12-23T16:55:06.173Z,99194.89
2023-12-23T16:57:35.155Z,99195.64
2023-12-23T17:00:06.180Z,99202.02
2023-12-23T17:02:35.300Z,99196.11
2023-12-23T17:05:04.407Z,99200.17
2023-12-23T17:07:34.149Z,99201.44
2023-12-23T17:10:03.000Z,99195.47
2023-12-23T17:12:31.918Z,99199.17
2023-12-23T17:15:00.839Z,99206.74
2023-12-23T17:17:29.944Z,99210.58
2023-12-23T17:19:59.272Z,99207.23
2023-12-23T17:22:28.164Z,99204.45
2023-12-23T17:24:57.179Z,99199.02
2023-12-23T17:27:25.916Z,99198.89
2023-12-23T17:30:01.189Z,99197.30
2023-12-23T17:32:30.490Z,99196.08
2023-12-23T17:35:01.995Z,99199.98
2023-12-23T17:37:32.253Z,99204.91
2023-12-23T17:40:01.396Z,99198.76
2023-12-23T17:42:30.387Z,99200.89
2023-12-23T17:44:59.904Z,99203.69
2023-12-23T17:47:28.944Z,99205.78
2023-12-23T17:49:57.710Z,99204.89
2023-12-23T17:52:30.588Z,99212.59
2023-12-23T17:55:07.472Z,99218.17
2023-12-23T17:57:36.750Z,99223.03
2023-12-23T18:00:06.582Z,99229.88
2023-12-23T18:02:36.210Z,99232.65
2023-12-23T18:05:05.919Z,99231.45
2023-12-23T18:07:35.225Z,99234.43
2023-12-23T18:10:05.754Z,99234.14
2023-12-23T18:12:34.439Z,99232.95
2023-12-23T18:15:04.512Z,99230.16
2023-12-23T18:17:33.565Z,99225.83
2023-12-23T18:20:02.747Z,99229.36
2023-12-23T18:22:31.937Z,99232.88
2023-12-23T18:25:01.014Z,99233.58
2023-12-23T18:27:29.816Z,99237.78
2023-12-23T18:29:58.799Z,99234.78
2023-12-23T18:32:30.247Z,99237.55
2023-12-23T18:35:00.778Z,99248.73
2023-12-23T18:37:34.575Z,99246.08
2023-12-23T18:40:04.235Z,99249.41
2023-12-23T18:42:35.815Z,99253.27
2023-12-23T18:45:07.358Z,99252.21
2023-12-23T18:47:40.641Z,99252.39
2023-12-23T18:50:10.363Z,99255.02
2023-12-23T18:52:39.489Z,99253.79
2023-12-23T18:55:09.041Z,99255.39
2023-12-23T18:57:38.261Z,99253.98
2023-12-23T19:00:09.603Z,99255.42
2023-12-23T19:02:38.892Z,99252.79
2023-12-23T19:05:09.746Z,99254.89
2023-12-23T19:07:39.036Z,99257.17
2023-12-23T19:10:08.208Z,99263.13
2023-12-23T19:12:37.167Z,99267.11
2023-12-23T19:15:06.874Z,99267.09
2023-12-23T19:17:35.834Z,99266.73
2023-12-23T19:20:05.448Z,99264.63
2023-12-23T19:22:34.367Z,99273.82
2023-12-23T19:25:04.584Z,99271.95
2023-12-23T19:27:33.459Z,99268.17
2023-12-23T19:30:05.844Z,99265.92
2023-12-23T19:32:36.554Z,99266.11
2023-12-23T19:35:06.308Z,99270.00
2023-12-23T19:37:35.987Z,99271.61
2023-12-23T19:40:10.342Z,99275.13
2023-12-23T19:42:40.195Z,99274.44
2023-12-23T19:45:10.043Z,99269.36
2023-12-23T19:47:38.930Z,99271.98
2023-12-23T19:50:09.321Z,99277.92
2023-12-23T19:52:38.488Z,99270.54
2023-12-23T19:55:16.950Z,99270.70
2023-12-23T19:57:45.617Z,99269.34
2023-12-23T20:00:15.305Z,99275.49
2023-12-23T20:02:44.704Z,99278.14
2023-12-23T20:05:14.603Z,99282.19
2023-12-23T20:07:43.404Z,99284.30
2023-12-23T20:10:12.429Z,99291.48
2023-12-23T20:12:42.012Z,99287.59
2023-12-23T20:15:11.254Z,99288.27
2023-12-23T20:17:40.135Z,99292.27
2023-12-23T20:20:10.096Z,99290.29
2023-12-23T20:22:40.085Z,99288.50
2023-12-23T20:25:09.110Z,99280.72
2023-12-23T20:27:37.946Z,99281.54
2023-12-23T20:30:07.928Z,99291.30
2023-12-23T20:32:37.152Z,99290.58
2023-12-23T20:35:06.571Z,99285.44
2023-12-23T20:37:35.433Z,99288.35
2023-12-23T20:40:05.164Z,99287.95
2023-12-23T20:42:34.110Z,99288.80
2023-12-23T20:45:03.566Z,99291.94
2023-12-23T20:47:32.892Z,99289.41
2023-12-23T20:50:02.168Z,99287.61
2023-12-23T20:52:31.313Z,99284.96
2023-12-23T20:55:00.192Z,99285.16
2023-12-23T20:57:29.293Z,99281.51
2023-12-23T20:59:58.510Z,99277.83
2023-12-23T21:02:27.308Z,99279.08
2023-12-23T21:04:56.259Z,99281.19
2023-12-23T21:07:25.525Z,99272.08
2023-12-23T21:09:56.497Z,99263.15
2023-12-23T21:12:28.323Z,99255.28
2023-12-23T21:14:59.922Z,99253.38
2023-12-23T21:17:29.042Z,99261.63
2023-12-23T21:19:58.162Z,99264.98
2023-12-23T21:22:27.115Z,99270.92
2023-12-23T21:24:56.450Z,99272.67
2023-12-23T21:27:25.629Z,99275.27
2023-12-23T21:29:54.430Z,99280.11
2023-12-23T21:32:23.417Z,99285.66
2023-12-23T21:34:52.383Z,99279.65
2023-12-23T21:37:21.299Z,99277.67
2023-12-23T21:39:50.073Z,99279.56
2023-12-23T21:42:19.125Z,99279.34
2023-12-23T21:44:48.269Z,99275.60
2023-12-23T21:47:17.376Z,99273.77
2023-12-23T21:49:47.735Z,99275.16
2023-12-23T21:53:55.727Z,99276.52
2023-12-23T21:56:24.754Z,99279.15
2023-12-23T21:58:53.609Z,99281.75
2023-12-23T22:01:22.521Z,99285.05
2023-12-23T22:03:51.761Z,99286.02
2023-12-23T22:06:21.646Z,99291.93
2023-12-23T22:08:52.179Z,99293.84
2023-12-23T22:11:22.139Z,99291.31
2023-12-23T22:13:51.342Z,99291.77
2023-12-23T22:16:20.213Z,99291.93
2023-12-23T22:18:50.367Z,99291.20
2023-12-23T22:21:19.355Z,99283.27
2023-12-23T22:23:48.409Z,99285.69
2023-12-23T22:26:18.520Z,99284.78
2023-12-23T22:28:47.396Z,99285.65
2023-12-23T22:31:16.192Z,99287.92
2023-12-23T22:33:45.183Z,99289.11
2023-12-23T22:36:14.431Z,99291.96
2023-12-23T22:38:43.803Z,99299.40
2023-12-23T22:41:13.200Z,99299.59
2023-12-23T22:43:42.135Z,99299.45
2023-12-23T22:46:10.970Z,99297.77
2023-12-23T22:48:39.775Z,99298.56
2023-12-23T22:51:08.915Z,99304.93
2023-12-23T22:53:37.801Z,99303.39
2023-12-23T22:56:08.294Z,99307.43
2023-12-23T22:58:37.297Z,99307.07
2023-12-23T23:01:06.200Z,99314.07
2023-12-23T23:03:35.110Z,99321.11
2023-12-23T23:06:04.377Z,99322.13
2023-12-23T23:08:33.433Z,99324.57
2023-12-23T23:11:02.285Z,99322.45
2023-12-23T23:13:31.060Z,99328.21
2023-12-23T23:15:59.904Z,99331.89
2023-12-23T23:18:28.972Z,99335.23
2023-12-23T23:20:58.012Z,99336.58
2023-12-23T23:23:27.035Z,99339.56
2023-12-23T23:25:55.764Z,99340.79
2023-12-23T23:28:24.653Z,99342.55
2023-12-23T23:30:53.766Z,99343.61
2023-12-23T23:33:22.596Z,99343.09
2023-12-23T23:35:51.596Z,99346.26
2023-12-23T23:38:22.827Z,99352.25
2023-12-23T23:40:51.978Z,99359.83
2023-12-23T23:43:20.741Z,99371.10
2023-12-23T23:45:50.696Z,99371.66
2023-12-23T23:48:19.586Z,99374.47
2023-12-23T23:50:48.525Z,99377.63
2023-12-23T23:53:21.303Z,99376.09
2023-12-23T23:55:50.069Z,99381.02
2023-12-23T23:58:18.931Z,99390.19
